createdAt,value
2018-07-24T00:00:20.302Z,22.10
2018-07-24T00:02:47.155Z,22.00
2018-07-24T00:05:14.132Z,21.90
2018-07-24T00:07:40.990Z,21.90
2018-07-24T00:10:07.965Z,21.90
2018-07-24T00:12:34.848Z,21.90
2018-07-24T00:15:01.956Z,21.80
2018-07-24T00:17:28.809Z,21.80
2018-07-24T00:19:55.660Z,21.80
2018-07-24T00:22:22.643Z,21.80
2018-07-24T00:24:49.508Z,21.70
2018-07-24T00:27:16.484Z,21.70
2018-07-24T00:29:43.333Z,21.60
2018-07-24T00:32:10.283Z,21.70
2018-07-24T00:34:37.209Z,21.70
2018-07-24T00:37:04.064Z,21.70
2018-07-24T00:39:30.994Z,21.70
2018-07-24T00:41:57.857Z,21.60
2018-07-24T00:44:24.941Z,21.60
2018-07-24T00:46:52.631Z,21.60
2018-07-24T00:49:19.483Z,21.60
2018-07-24T00:51:46.428Z,21.60
2018-07-24T00:54:13.328Z,21.60
2018-07-24T00:56:40.240Z,21.60
2018-07-24T00:59:07.125Z,21.60
2018-07-24T01:01:34.788Z,21.70
2018-07-24T01:04:02.380Z,21.50
2018-07-24T01:06:29.307Z,21.50
2018-07-24T01:08:56.164Z,21.50
2018-07-24T01:11:23.032Z,21.50
2018-07-24T01:13:49.999Z,21.50
2018-07-24T01:16:16.858Z,21.50
2018-07-24T01:18:43.944Z,21.50
2018-07-24T01:21:10.831Z,21.50
2018-07-24T01:23:37.672Z,21.40
2018-07-24T01:26:04.622Z,21.40
2018-07-24T01:28:31.484Z,21.40
2018-07-24T01:30:58.429Z,21.30
2018-07-24T01:33:25.363Z,21.10
2018-07-24T01:35:52.209Z,21.00
2018-07-24T01:38:19.132Z,21.00
2018-07-24T01:40:45.997Z,20.90
2018-07-24T01:43:12.935Z,21.00
2018-07-24T01:45:39.787Z,21.00
2018-07-24T01:48:06.669Z,20.70
2018-07-24T01:50:34.334Z,20.60
2018-07-24T01:53:01.920Z,20.60
2018-07-24T01:55:28.864Z,20.60
2018-07-24T01:57:55.734Z,20.70
2018-07-24T02:00:22.657Z,20.50
2018-07-24T02:02:49.586Z,20.20
2018-07-24T02:05:16.496Z,20.00
2018-07-24T02:07:43.354Z,20.10
2018-07-24T02:10:10.284Z,20.10
2018-07-24T02:12:37.163Z,20.10
2018-07-24T02:15:04.041Z,20.00
2018-07-24T02:17:30.990Z,20.00
2018-07-24T02:19:57.832Z,19.80
2018-07-24T02:22:24.680Z,19.80
2018-07-24T02:24:51.623Z,19.60
2018-07-24T02:27:18.500Z,19.40
2018-07-24T02:29:45.444Z,19.50
2018-07-24T02:32:12.394Z,19.70
2018-07-24T02:34:39.260Z,19.70
2018-07-24T02:37:06.946Z,19.90
2018-07-24T02:39:33.789Z,19.90
2018-07-24T02:42:00.724Z,20.00
2018-07-24T02:44:27.580Z,20.10
2018-07-24T02:46:54.461Z,20.10
2018-07-24T02:49:21.420Z,20.00
2018-07-24T02:51:48.292Z,19.50
2018-07-24T02:54:15.974Z,18.90
2018-07-24T02:56:42.824Z,18.90
2018-07-24T02:59:09.660Z,18.80
2018-07-24T03:01:36.593Z,18.80
2018-07-24T03:04:03.477Z,18.90
2018-07-24T03:06:30.405Z,19.20
2018-07-24T03:08:57.261Z,19.40
2018-07-24T03:11:24.244Z,19.50
2018-07-24T03:13:51.094Z,19.70
2018-07-24T03:16:18.022Z,19.80
2018-07-24T03:18:44.933Z,19.80
2018-07-24T03:21:11.886Z,19.90
2018-07-24T03:23:38.821Z,20.00
2018-07-24T03:26:05.724Z,20.00
2018-07-24T03:28:32.644Z,19.90
2018-07-24T03:30:59.498Z,20.00
2018-07-24T03:33:26.529Z,19.90
2018-07-24T03:35:53.396Z,19.90
2018-07-24T03:38:20.317Z,20.00
2018-07-24T03:40:47.284Z,20.00
2018-07-24T03:43:14.139Z,20.00
2018-07-24T03:45:41.099Z,20.00
2018-07-24T03:48:08.693Z,20.00
2018-07-24T03:50:35.627Z,20.00
2018-07-24T03:53:02.545Z,20.00
2018-07-24T03:55:30.164Z,19.90
2018-07-24T03:57:57.115Z,19.90
2018-07-24T04:00:24.009Z,19.90
2018-07-24T04:02:51.695Z,19.90
2018-07-24T04:05:18.544Z,19.90
2018-07-24T04:07:45.462Z,19.90
2018-07-24T04:10:13.125Z,20.00
2018-07-24T04:12:40.721Z,20.00
2018-07-24T04:15:07.656Z,20.00
2018-07-24T04:17:34.500Z,20.00
2018-07-24T04:20:01.472Z,20.10
2018-07-24T04:22:28.356Z,20.10
2018-07-24T04:24:55.974Z,20.20
2018-07-24T04:27:37.013Z,20.20
2018-07-24T04:30:04.828Z,20.20
2018-07-24T04:32:32.241Z,20.30
2018-07-24T04:34:59.116Z,20.40
2018-07-24T04:37:25.990Z,20.50
2018-07-24T04:39:52.949Z,20.70
2018-07-24T04:42:19.820Z,21.00
2018-07-24T04:44:46.778Z,21.30
2018-07-24T04:47:13.653Z,21.60
2018-07-24T04:49:40.564Z,22.30
2018-07-24T04:52:07.529Z,24.00
2018-07-24T04:54:34.356Z,25.00
2018-07-24T04:57:01.303Z,27.10
2018-07-24T04:59:28.241Z,29.00
2018-07-24T05:01:55.197Z,30.10
2018-07-24T05:04:22.143Z,30.90
2018-07-24T05:06:49.014Z,30.40
2018-07-24T05:09:15.960Z,31.90
2018-07-24T05:11:42.816Z,33.20
2018-07-24T05:14:09.673Z,34.00
2018-07-24T05:16:36.642Z,34.40
2018-07-24T05:19:03.493Z,34.40
2018-07-24T05:21:31.197Z,34.00
2018-07-24T05:23:58.064Z,34.00
2018-07-24T05:26:24.928Z,32.80
2018-07-24T05:28:51.856Z,31.10
2018-07-24T05:31:18.741Z,29.70
2018-07-24T05:33:45.780Z,30.00
2018-07-24T05:36:13.412Z,32.40
2018-07-24T05:38:40.281Z,32.40
2018-07-24T05:41:07.228Z,31.20
2018-07-24T05:43:34.831Z,31.60
2018-07-24T05:46:01.796Z,31.60
2018-07-24T05:48:28.693Z,29.00
2018-07-24T05:50:55.572Z,27.30
2018-07-24T05:53:22.524Z,26.40
2018-07-24T05:55:49.434Z,25.40
2018-07-24T05:58:16.308Z,25.00
2018-07-24T06:00:43.277Z,24.70
2018-07-24T06:03:10.145Z,24.30
2018-07-24T06:05:37.131Z,24.60
2018-07-24T06:08:04.037Z,24.60
2018-07-24T06:10:30.902Z,25.50
2018-07-24T06:12:58.572Z,26.10
2018-07-24T06:15:25.433Z,26.00
2018-07-24T06:17:52.383Z,26.10
2018-07-24T06:20:19.241Z,25.30
2018-07-24T06:22:46.189Z,24.70
2018-07-24T06:25:13.040Z,25.00
2018-07-24T06:27:39.890Z,24.60
2018-07-24T06:30:06.844Z,24.60
2018-07-24T06:32:33.712Z,25.00
2018-07-24T06:35:01.505Z,24.80
2018-07-24T06:37:28.399Z,24.80
2018-07-24T06:39:55.379Z,24.90
2018-07-24T06:42:22.970Z,24.80
2018-07-24T06:44:49.821Z,24.80
2018-07-24T06:47:16.778Z,24.80
2018-07-24T06:49:43.653Z,25.00
2018-07-24T06:52:10.597Z,25.20
2018-07-24T06:54:37.468Z,25.90
2018-07-24T06:57:05.178Z,25.50
2018-07-24T06:59:32.034Z,25.50
2018-07-24T07:01:58.897Z,25.00
2018-07-24T07:04:25.819Z,25.00
2018-07-24T07:06:52.671Z,25.20
2018-07-24T07:09:19.608Z,25.00
2018-07-24T07:11:46.484Z,25.10
2018-07-24T07:14:14.081Z,25.50
2018-07-24T07:16:41.037Z,25.50
2018-07-24T07:19:07.897Z,25.70
2018-07-24T07:21:35.157Z,26.00
2018-07-24T07:24:02.058Z,26.30
2018-07-24T07:26:28.926Z,26.30
2018-07-24T07:28:55.861Z,26.30
2018-07-24T07:31:22.731Z,26.30
2018-07-24T07:33:49.808Z,26.10
2018-07-24T07:36:16.699Z,26.40
2018-07-24T07:38:43.544Z,26.50
2018-07-24T07:41:10.529Z,26.50
2018-07-24T07:43:37.388Z,26.70
2018-07-24T07:46:04.382Z,26.90
2018-07-24T07:48:31.223Z,26.90
2018-07-24T07:50:58.155Z,27.10
2018-07-24T07:53:25.115Z,27.50
2018-07-24T07:55:51.984Z,27.70
2018-07-24T07:58:18.845Z,27.60
2018-07-24T08:00:45.876Z,27.50
2018-07-24T08:03:12.833Z,27.60
2018-07-24T08:05:39.803Z,27.80
2018-07-24T08:08:07.425Z,28.50
2018-07-24T08:10:34.284Z,28.50
2018-07-24T08:13:01.230Z,28.50
2018-07-24T08:15:28.124Z,28.90
2018-07-24T08:17:54.973Z,30.60
2018-07-24T08:20:21.921Z,30.60
2018-07-24T08:22:48.849Z,31.80
2018-07-24T08:25:15.809Z,32.00
2018-07-24T08:27:43.428Z,33.80
2018-07-24T08:30:10.335Z,33.70
2018-07-24T08:32:37.313Z,37.90
2018-07-24T08:35:04.324Z,39.80
2018-07-24T08:37:31.199Z,38.40
2018-07-24T08:39:58.123Z,39.60
2018-07-24T08:42:24.999Z,37.80
2018-07-24T08:44:52.005Z,38.40
2018-07-24T08:47:18.861Z,39.10
2018-07-24T08:49:45.708Z,39.40
2018-07-24T08:52:12.647Z,39.40
2018-07-24T08:54:39.779Z,39.30
2018-07-24T08:57:06.886Z,39.30
2018-07-24T08:59:33.733Z,38.10
2018-07-24T09:02:00.578Z,37.80
2018-07-24T09:04:27.516Z,37.00
2018-07-24T09:06:54.398Z,37.00
2018-07-24T09:09:21.355Z,37.30
2018-07-24T09:11:48.214Z,37.00
2018-07-24T09:14:15.088Z,37.10
2018-07-24T09:16:42.045Z,36.20
2018-07-24T09:19:08.901Z,36.40
2018-07-24T09:21:35.880Z,36.90
2018-07-24T09:24:02.800Z,36.50
2018-07-24T09:26:29.664Z,37.10
2018-07-24T09:28:56.603Z,37.20
2018-07-24T09:31:24.196Z,37.70
2018-07-24T09:33:51.144Z,37.70
2018-07-24T09:36:18.153Z,36.90
2018-07-24T09:38:45.754Z,37.60
2018-07-24T09:41:12.696Z,37.50
2018-07-24T09:43:39.555Z,37.80
2018-07-24T09:46:06.529Z,37.90
2018-07-24T09:48:33.393Z,38.40
2018-07-24T09:51:00.260Z,38.60
2018-07-24T09:53:27.192Z,38.50
2018-07-24T09:55:54.780Z,37.30
2018-07-24T09:58:21.874Z,37.30
2018-07-24T10:00:48.830Z,35.90
2018-07-24T10:03:15.682Z,35.50
2018-07-24T10:05:42.641Z,36.30
2018-07-24T10:08:10.254Z,35.90
2018-07-24T10:10:37.209Z,35.90
2018-07-24T10:13:04.213Z,36.60
2018-07-24T10:15:31.169Z,37.40
2018-07-24T10:17:58.861Z,36.40
2018-07-24T10:20:25.724Z,36.30
2018-07-24T10:22:52.720Z,36.60
2018-07-24T10:25:19.596Z,36.00
2018-07-24T10:27:46.574Z,36.60
2018-07-24T10:30:14.191Z,36.90
2018-07-24T10:32:41.176Z,36.90
2018-07-24T10:35:08.059Z,36.60
2018-07-24T10:37:35.072Z,36.60
2018-07-24T10:40:02.041Z,36.60
2018-07-24T10:42:29.629Z,36.30
2018-07-24T10:44:56.620Z,36.20
2018-07-24T10:47:23.469Z,36.60
2018-07-24T10:49:50.425Z,36.00
2018-07-24T10:52:17.323Z,36.60
2018-07-24T10:54:44.180Z,37.00
2018-07-24T10:57:11.146Z,37.00
2018-07-24T10:59:38.022Z,37.00
2018-07-24T11:02:05.829Z,36.50
2018-07-24T11:04:32.789Z,36.40
2018-07-24T11:06:59.639Z,36.60
2018-07-24T11:09:26.581Z,37.10
2018-07-24T11:11:53.429Z,37.50
2018-07-24T11:14:20.465Z,38.10
2018-07-24T11:16:47.336Z,37.10
2018-07-24T11:19:14.298Z,36.80
2018-07-24T11:21:41.177Z,35.50
2018-07-24T11:24:08.057Z,35.20
2018-07-24T11:26:35.005Z,34.60
2018-07-24T11:29:01.880Z,34.10
2018-07-24T11:31:29.590Z,34.80
2018-07-24T11:33:56.461Z,34.80
2018-07-24T11:36:23.359Z,35.60
2018-07-24T11:38:50.427Z,35.60
2018-07-24T11:41:17.292Z,35.90
2018-07-24T11:43:44.251Z,36.30
2018-07-24T11:46:11.130Z,36.40
2018-07-24T11:48:38.021Z,36.10
2018-07-24T11:51:05.021Z,34.60
2018-07-24T11:53:31.982Z,34.30
2018-07-24T11:55:58.935Z,34.40
2018-07-24T11:58:25.847Z,33.90
2018-07-24T12:00:52.845Z,33.50
2018-07-24T12:03:19.768Z,34.20
2018-07-24T12:05:46.660Z,34.30
2018-07-24T12:08:13.598Z,34.60
2018-07-24T12:10:40.445Z,35.00
2018-07-24T12:13:07.410Z,35.30
2018-07-24T12:15:34.264Z,35.80
2018-07-24T12:18:01.144Z,36.20
2018-07-24T12:20:28.107Z,36.10
2018-07-24T12:22:54.957Z,35.70
2018-07-24T12:25:21.905Z,36.20
2018-07-24T12:27:48.761Z,36.70
2018-07-24T12:30:15.640Z,36.30
2018-07-24T12:32:43.321Z,36.20
2018-07-24T12:35:10.184Z,36.10
2018-07-24T12:37:37.124Z,36.20
2018-07-24T12:40:04.096Z,36.50
2018-07-24T12:42:30.981Z,36.60
2018-07-24T12:44:58.677Z,36.40
2018-07-24T12:47:25.536Z,36.40
2018-07-24T12:49:52.402Z,36.20
2018-07-24T12:52:19.349Z,36.40
2018-07-24T12:54:46.277Z,36.70
2018-07-24T12:57:13.651Z,36.10
2018-07-24T12:59:40.512Z,35.40
2018-07-24T13:02:07.365Z,34.80
2018-07-24T13:04:34.344Z,34.20
2018-07-24T13:07:01.217Z,34.30
2018-07-24T13:09:28.186Z,34.10
2018-07-24T13:11:55.054Z,34.70
2018-07-24T13:14:22.664Z,36.00
2018-07-24T13:16:49.611Z,36.00
2018-07-24T13:19:16.479Z,36.20
2018-07-24T13:21:43.717Z,36.50
2018-07-24T13:24:10.578Z,36.90
2018-07-24T13:26:37.438Z,36.80
2018-07-24T13:29:04.387Z,37.00
2018-07-24T13:31:31.245Z,37.30
2018-07-24T13:33:58.323Z,37.50
2018-07-24T13:36:25.181Z,37.80
2018-07-24T13:38:52.039Z,37.80
2018-07-24T13:41:19.116Z,37.90
2018-07-24T13:43:46.750Z,36.80
2018-07-24T13:46:13.897Z,36.70
2018-07-24T13:48:40.754Z,36.00
2018-07-24T13:51:07.620Z,35.80
2018-07-24T13:53:34.580Z,36.10
2018-07-24T13:56:01.436Z,36.00
2018-07-24T13:58:28.390Z,35.80
2018-07-24T14:00:55.492Z,35.80
2018-07-24T14:03:22.488Z,35.50
2018-07-24T14:05:49.467Z,34.90
2018-07-24T14:08:16.376Z,34.40
2018-07-24T14:10:43.341Z,34.30
2018-07-24T14:13:10.209Z,34.30
2018-07-24T14:15:37.152Z,34.00
2018-07-24T14:18:04.012Z,33.60
2018-07-24T14:20:30.881Z,33.70
2018-07-24T14:22:57.833Z,34.10
2018-07-24T14:25:24.710Z,34.60
2018-07-24T14:27:51.795Z,34.20
2018-07-24T14:30:18.644Z,34.50
2018-07-24T14:32:45.505Z,34.40
2018-07-24T14:35:13.190Z,34.70
2018-07-24T14:37:40.044Z,34.70
2018-07-24T14:40:07.014Z,35.30
2018-07-24T14:42:33.962Z,35.50
2018-07-24T14:45:00.817Z,35.40
2018-07-24T14:47:27.761Z,35.70
2018-07-24T14:49:54.621Z,35.70
2018-07-24T14:52:21.751Z,35.70
2018-07-24T14:54:48.610Z,35.30
2018-07-24T14:57:15.465Z,35.70
2018-07-24T14:59:42.409Z,36.00
2018-07-24T15:02:09.269Z,36.10
2018-07-24T15:04:36.260Z,36.30
2018-07-24T15:07:03.137Z,36.10
2018-07-24T15:09:30.009Z,35.60
2018-07-24T15:11:57.797Z,35.80
2018-07-24T15:14:24.638Z,35.80
2018-07-24T15:16:51.582Z,35.80
2018-07-24T15:19:18.469Z,35.50
2018-07-24T15:21:45.462Z,35.70
2018-07-24T15:24:12.318Z,35.70
2018-07-24T15:26:39.180Z,35.80
2018-07-24T15:29:06.128Z,35.70
2018-07-24T15:31:33.051Z,35.20
2018-07-24T15:34:00.099Z,35.00
2018-07-24T15:36:26.952Z,35.00
2018-07-24T15:38:53.828Z,35.00
2018-07-24T15:41:20.797Z,35.10
2018-07-24T15:43:47.787Z,35.40
2018-07-24T15:46:14.743Z,35.50
2018-07-24T15:48:41.593Z,35.50
2018-07-24T15:51:08.464Z,35.60
2018-07-24T15:53:35.508Z,35.60
2018-07-24T15:56:02.441Z,35.50
2018-07-24T15:58:29.412Z,35.50
2018-07-24T16:00:57.011Z,35.00
2018-07-24T16:03:23.868Z,35.00
2018-07-24T16:05:50.813Z,34.50
2018-07-24T16:08:17.668Z,34.60
2018-07-24T16:10:44.636Z,34.20
2018-07-24T16:13:11.504Z,34.40
2018-07-24T16:15:38.449Z,34.50
2018-07-24T16:18:05.377Z,34.60
2018-07-24T16:20:32.237Z,34.50
2018-07-24T16:22:59.975Z,34.60
2018-07-24T16:25:26.827Z,34.60
2018-07-24T16:27:53.676Z,34.50
2018-07-24T16:30:20.694Z,34.40
2018-07-24T16:32:47.577Z,34.50
2018-07-24T16:35:14.528Z,34.00
2018-07-24T16:37:41.392Z,33.90
2018-07-24T16:40:08.995Z,33.90
2018-07-24T16:42:36.139Z,33.90
2018-07-24T16:45:03.105Z,34.10
2018-07-24T16:47:30.060Z,34.10
2018-07-24T16:49:56.918Z,34.00
2018-07-24T16:52:23.788Z,34.00
2018-07-24T16:54:50.729Z,34.20
2018-07-24T16:57:17.620Z,34.40
2018-07-24T16:59:44.600Z,34.50
2018-07-24T17:02:11.559Z,34.60
2018-07-24T17:04:38.563Z,34.60
2018-07-24T17:07:05.580Z,34.60
2018-07-24T17:09:32.442Z,34.60
2018-07-24T17:12:00.178Z,34.60
2018-07-24T17:14:27.020Z,34.60
2018-07-24T17:16:53.888Z,34.60
2018-07-24T17:19:20.841Z,34.60
2018-07-24T17:21:47.737Z,34.70
2018-07-24T17:24:15.436Z,34.60
2018-07-24T17:26:42.294Z,34.60
2018-07-24T17:29:09.348Z,34.50
2018-07-24T17:31:36.211Z,34.40
2018-07-24T17:34:03.094Z,34.30
2018-07-24T17:36:30.033Z,34.40
2018-07-24T17:38:57.633Z,33.70
2018-07-24T17:41:24.592Z,33.70
2018-07-24T17:43:51.547Z,33.40
2018-07-24T17:46:18.397Z,33.40
2018-07-24T17:48:45.353Z,33.30
2018-07-24T17:51:12.224Z,33.20
2018-07-24T17:53:39.199Z,33.30
2018-07-24T17:56:06.069Z,33.30
2018-07-24T17:58:32.936Z,33.40
2018-07-24T18:01:00.560Z,33.30
2018-07-24T18:03:27.419Z,33.20
2018-07-24T18:05:54.400Z,33.20
2018-07-24T18:08:22.014Z,32.90
2018-07-24T18:10:48.882Z,32.90
2018-07-24T18:13:15.824Z,32.80
2018-07-24T18:15:42.721Z,32.70
2018-07-24T18:18:09.822Z,32.60
2018-07-24T18:20:36.670Z,32.60
2018-07-24T18:23:03.565Z,32.50
2018-07-24T18:25:30.511Z,32.40
2018-07-24T18:27:57.357Z,32.30
2018-07-24T18:30:24.336Z,32.30
2018-07-24T18:32:51.208Z,32.30
2018-07-24T18:35:18.081Z,32.20
2018-07-24T18:37:45.040Z,32.10
2018-07-24T18:40:11.908Z,32.00
2018-07-24T18:42:39.069Z,31.90
2018-07-24T18:45:06.020Z,31.90
2018-07-24T18:47:32.873Z,31.80
2018-07-24T18:49:59.818Z,31.70
2018-07-24T18:52:26.668Z,31.60
2018-07-24T18:54:54.005Z,31.60
2018-07-24T18:57:20.860Z,31.50
2018-07-24T18:59:47.725Z,31.40
2018-07-24T19:02:14.671Z,31.30
2018-07-24T19:04:41.522Z,31.10
2018-07-24T19:07:08.488Z,31.00
2018-07-24T19:09:35.340Z,30.80
2018-07-24T19:12:02.189Z,30.60
2018-07-24T19:14:29.132Z,30.60
2018-07-24T19:16:55.992Z,30.40
2018-07-24T19:19:22.940Z,30.20
2018-07-24T19:21:49.789Z,30.10
2018-07-24T19:24:16.628Z,30.00
2018-07-24T19:26:43.615Z,29.80
2018-07-24T19:29:11.213Z,29.60
2018-07-24T19:31:38.084Z,29.60
2018-07-24T19:34:05.025Z,29.50
2018-07-24T19:36:31.886Z,29.40
2018-07-24T19:38:58.785Z,29.30
2018-07-24T19:41:25.744Z,29.20
2018-07-24T19:43:52.616Z,29.10
2018-07-24T19:46:20.340Z,28.90
2018-07-24T19:48:47.300Z,28.90
2018-07-24T19:51:14.158Z,28.90
2018-07-24T19:53:40.995Z,28.80
2018-07-24T19:56:08.374Z,28.70
2018-07-24T19:58:35.236Z,28.60
2018-07-24T20:01:03.187Z,28.40
2018-07-24T20:03:30.074Z,28.40
2018-07-24T20:05:57.077Z,28.40
2018-07-24T20:08:24.067Z,28.30
2018-07-24T20:10:51.728Z,28.10
2018-07-24T20:13:18.831Z,28.00
2018-07-24T20:15:45.710Z,28.00
2018-07-24T20:18:13.299Z,27.80
2018-07-24T20:20:40.273Z,27.70
2018-07-24T20:23:07.195Z,27.60
2018-07-24T20:25:34.168Z,27.60
2018-07-24T20:28:01.045Z,27.50
2018-07-24T20:30:27.918Z,27.50
2018-07-24T20:32:55.386Z,27.40
2018-07-24T20:35:22.316Z,27.40
2018-07-24T20:37:49.269Z,27.30
2018-07-24T20:40:16.356Z,27.20
2018-07-24T20:42:43.320Z,27.10
2018-07-24T20:45:10.285Z,27.00
2018-07-24T20:47:37.870Z,26.90
2018-07-24T20:50:04.842Z,26.90
2018-07-24T20:52:31.824Z,26.90
2018-07-24T20:54:58.762Z,26.80
2018-07-24T20:57:32.628Z,26.80
2018-07-24T20:59:59.571Z,26.70
2018-07-24T21:02:26.429Z,26.50
2018-07-24T21:04:53.289Z,26.50
2018-07-24T21:07:20.241Z,26.50
2018-07-24T21:09:47.085Z,26.50
2018-07-24T21:12:14.029Z,26.40
2018-07-24T21:14:40.894Z,26.40
2018-07-24T21:17:07.859Z,26.40
2018-07-24T21:19:34.762Z,26.40
2018-07-24T21:22:01.617Z,26.30
2018-07-24T21:24:28.560Z,26.20
2018-07-24T21:26:55.434Z,26.20
2018-07-24T21:29:22.290Z,26.10
2018-07-24T21:31:49.223Z,26.10
2018-07-24T21:34:16.824Z,26.00
2018-07-24T21:36:43.901Z,26.00
2018-07-24T21:39:10.811Z,26.10
2018-07-24T21:41:37.698Z,26.00
2018-07-24T21:44:04.647Z,26.00
2018-07-24T21:46:31.576Z,25.90
2018-07-24T21:48:58.566Z,25.80
2018-07-24T21:51:25.515Z,25.80
2018-07-24T21:53:52.386Z,25.70
2018-07-24T21:56:19.333Z,25.70
2018-07-24T21:58:46.208Z,25.70
2018-07-24T22:01:13.185Z,25.70
2018-07-24T22:03:40.780Z,25.50
2018-07-24T22:06:07.649Z,25.50
2018-07-24T22:08:34.657Z,25.50
2018-07-24T22:11:01.542Z,25.30
2018-07-24T22:13:28.634Z,25.30
2018-07-24T22:15:57.863Z,25.20
2018-07-24T22:18:24.813Z,25.20
2018-07-24T22:20:51.751Z,25.20
2018-07-24T22:23:21.044Z,25.20
2018-07-24T22:25:47.966Z,25.10
2018-07-24T22:28:14.833Z,25.10
2018-07-24T22:30:41.875Z,25.10
2018-07-24T22:33:09.573Z,25.10
2018-07-24T22:35:36.419Z,25.10
2018-07-24T22:38:03.360Z,25.00
2018-07-24T22:40:30.295Z,25.00
2018-07-24T22:42:57.144Z,25.00
2018-07-24T22:45:24.087Z,25.00
2018-07-24T22:47:51.013Z,24.90
2018-07-24T22:50:17.930Z,24.80
2018-07-24T22:52:45.616Z,24.80
2018-07-24T22:55:13.207Z,24.70
2018-07-24T22:57:40.145Z,24.70
2018-07-24T23:00:07.021Z,24.70
2018-07-24T23:02:33.859Z,24.80
2018-07-24T23:05:00.809Z,24.80
2018-07-24T23:07:27.753Z,24.80
2018-07-24T23:09:54.692Z,24.80
2018-07-24T23:12:21.549Z,24.80
2018-07-24T23:14:48.405Z,24.80
2018-07-24T23:17:15.347Z,24.80
2018-07-24T23:19:42.189Z,24.80
2018-07-24T23:22:09.125Z,24.70
2018-07-24T23:24:36.052Z,24.60
2018-07-24T23:27:03.146Z,24.50
2018-07-24T23:29:29.988Z,24.50
2018-07-24T23:31:56.842Z,24.30
2018-07-24T23:34:24.505Z,23.90
2018-07-24T23:36:52.104Z,24.00
2018-07-24T23:39:19.044Z,23.90
2018-07-24T23:41:45.909Z,24.00
2018-07-24T23:44:12.836Z,24.10
2018-07-24T23:46:39.705Z,23.80
2018-07-24T23:49:06.649Z,23.70
2018-07-24T23:51:33.512Z,23.70
2018-07-24T23:54:00.372Z,23.50
2018-07-24T23:56:27.308Z,23.60
2018-07-24T23:58:54.160Z,23.80
